Time;durP1;ratioP1;P1;durP2;ratioP2;P2;SDS_P1;SDS_P2;PMS_P1;PMS_P2;Temp;Humidity;BMP_temperature;BMP_pressure;BME280_temperature;BME280_humidity;BME280_pressure;Samples;Min_cycle;Max_cycle;Signal;HPM_P1;HPM_P2
2023/10/09 00:03:06;;;;;;;11.43;5.30;;;;;;;;;;5052938;28;20431;-63
2023/10/09 00:05:45;;;;;;;16.55;5.97;;;;;;;;;;5053191;28;20045;-63
2023/10/09 00:08:22;;;;;;;17.15;6.00;;;;;;;;;;5053245;28;20597;-63
2023/10/09 00:10:54;;;;;;;13.85;6.15;;;;;;;;;;5053214;28;20124;-63
2023/10/09 00:13:20;;;;;;;;;;;;;;;;;;5053517;28;20048;-63
2023/10/09 00:15:52;;;;;;;15.35;6.47;;;;;;;;;;5052448;28;20274;-63
2023/10/09 00:18:22;;;;;;;12.75;6.47;;;;;;;;;;5052870;28;20172;-63
2023/10/09 00:20:54;;;;;;;13.10;6.07;;;;;;;;;;5053010;28;20041;-63
2023/10/09 00:23:22;;;;;;;14.77;7.10;;;;;;;;;;5052567;28;20043;-63
2023/10/09 00:28:58;;;;;;;13.88;7.22;;;;;;;;;;5052596;28;20049;-63
2023/10/09 00:31:29;;;;;;;15.90;7.68;;;;;;;;;;5051648;28;20037;-63
2023/10/09 00:34:01;;;;;;;16.25;7.22;;;;;;;;;;5052463;28;20060;-63
2023/10/09 00:36:28;;;;;;;15.52;7.20;;;;;;;;;;5052245;28;20044;-63
2023/10/09 00:38:54;;;;;;;13.88;7.80;;;;;;;;;;5052223;28;20044;-63
2023/10/09 00:41:24;;;;;;;19.08;7.85;;;;;;;;;;5052430;28;20620;-63
2023/10/09 00:43:51;;;;;;;11.10;6.55;;;;;;;;;;5052529;28;20484;-63
2023/10/09 00:48:47;;;;;;;14.90;7.20;;;;;;;;;;5052515;28;20171;-63
2023/10/09 00:51:21;;;;;;;15.18;7.75;;;;;;;;;;5052508;28;20120;-63
2023/10/09 00:53:52;;;;;;;17.88;7.65;;;;;;;;;;5051352;28;20399;-63
2023/10/09 00:59:08;;;;;;;21.05;9.55;;;;;;;;;;5052266;28;20041;-63
2023/10/09 01:01:36;;;;;;;19.48;8.27;;;;;;;;;;5051770;28;20435;-63
2023/10/09 01:04:09;;;;;;;17.63;8.48;;;;;;;;;;5034337;28;20126;-63
2023/10/09 01:06:42;;;;;;;22.42;9.60;;;;;;;;;;5052172;28;20049;-63
2023/10/09 01:09:10;;;;;;;18.90;9.20;;;;;;;;;;5051826;28;20059;-63
2023/10/09 01:11:47;;;;;;;18.35;9.23;;;;;;;;;;5051782;28;20095;-63
2023/10/09 01:14:14;;;;;;;21.65;10.50;;;;;;;;;;5051524;28;20045;-63
2023/10/09 01:16:41;;;;;;;22.65;10.15;;;;;;;;;;5051356;28;20120;-63
2023/10/09 01:19:23;;;;;;;23.73;11.05;;;;;;;;;;5051904;28;20083;-63
2023/10/09 01:21:50;;;;;;;23.55;10.98;;;;;;;;;;5051949;28;20036;-63
2023/10/09 01:24:16;;;;;;;21.13;9.73;;;;;;;;;;5051452;28;20395;-63
2023/10/09 01:26:49;;;;;;;22.10;10.63;;;;;;;;;;5051261;28;20041;-63
2023/10/09 01:29:19;;;;;;;24.17;10.40;;;;;;;;;;5051708;28;20045;-63
2023/10/09 01:31:56;;;;;;;23.63;11.40;;;;;;;;;;5051257;28;20047;-63
2023/10/09 01:34:38;;;;;;;24.88;11.05;;;;;;;;;;5051533;28;20047;-63
2023/10/09 01:37:25;;;;;;;24.02;11.02;;;;;;;;;;5051622;28;20048;-63
2023/10/09 01:39:51;;;;;;;24.75;12.05;;;;;;;;;;5051195;28;20075;-63
2023/10/09 01:42:33;;;;;;;23.63;11.13;;;;;;;;;;5051194;28;20108;-63
2023/10/09 01:45:10;;;;;;;22.85;12.10;;;;;;;;;;5051016;28;20053;-63
2023/10/09 01:47:37;;;;;;;25.77;11.57;;;;;;;;;;5051177;28;20486;-63
2023/10/09 01:50:11;;;;;;;23.70;12.60;;;;;;;;;;5051440;28;20115;-63
2023/10/09 01:52:38;;;;;;;23.50;11.98;;;;;;;;;;5050723;28;20084;-63
2023/10/09 01:55:15;;;;;;;23.40;12.55;;;;;;;;;;5050870;28;20048;-63
2023/10/09 01:57:44;;;;;;;24.25;11.32;;;;;;;;;;5050560;28;20041;-63
2023/10/09 02:00:23;;;;;;;22.55;12.55;;;;;;;;;;5032784;28;20037;-63
2023/10/09 02:02:50;;;;;;;24.23;13.10;;;;;;;;;;5050823;28;20052;-63
2023/10/09 02:07:52;;;;;;;33.78;15.55;;;;;;;;;;5050802;28;20053;-63
2023/10/09 02:10:31;;;;;;;31.08;14.88;;;;;;;;;;5051088;28;20052;-63
2023/10/09 02:12:58;;;;;;;32.47;15.02;;;;;;;;;;5051127;28;20124;-63
2023/10/09 02:15:45;;;;;;;27.50;15.05;;;;;;;;;;5050287;28;20085;-63
2023/10/09 02:18:36;;;;;;;31.52;15.27;;;;;;;;;;5050922;28;20112;-63
2023/10/09 02:26:26;;;;;;;32.60;17.50;;;;;;;;;;5050862;28;20368;-63
2023/10/09 02:28:59;;;;;;;32.85;16.83;;;;;;;;;;5051049;28;20037;-63
2023/10/09 02:31:28;;;;;;;32.45;16.20;;;;;;;;;;5050889;28;20125;-63
2023/10/09 02:33:55;;;;;;;39.30;17.63;;;;;;;;;;5050760;28;20044;-63
2023/10/09 02:36:24;;;;;;;38.08;17.92;;;;;;;;;;5050187;28;20041;-63
2023/10/09 02:38:53;;;;;;;34.83;17.88;;;;;;;;;;5050795;28;20047;-63
2023/10/09 02:41:28;;;;;;;37.10;17.98;;;;;;;;;;5050426;28;20049;-63
2023/10/09 02:44:10;;;;;;;34.88;18.45;;;;;;;;;;5050507;28;20051;-63
2023/10/09 02:46:36;;;;;;;39.97;19.02;;;;;;;;;;5050815;28;20487;-63
2023/10/09 02:49:09;;;;;;;40.17;17.95;;;;;;;;;;5050813;28;20084;-63
2023/10/09 02:51:41;;;;;;;39.95;18.35;;;;;;;;;;5049923;28;20063;-63
2023/10/09 02:54:17;;;;;;;;;;;;;;;;;;5051174;28;20054;-63
2023/10/09 02:56:43;;;;;;;42.45;20.48;;;;;;;;;;5050460;28;19923;-63
2023/10/09 02:59:10;;;;;;;39.88;19.75;;;;;;;;;;5050158;28;20049;-63
2023/10/09 03:01:40;;;;;;;50.92;22.30;;;;;;;;;;5050700;28;20638;-63
2023/10/09 03:04:06;;;;;;;39.97;19.88;;;;;;;;;;5050559;28;20036;-63
2023/10/09 03:06:34;;;;;;;47.50;20.92;;;;;;;;;;5050079;28;20498;-63
2023/10/09 03:09:00;;;;;;;44.55;21.35;;;;;;;;;;5053226;28;20076;-63
2023/10/09 03:11:26;;;;;;;45.75;21.75;;;;;;;;;;5054287;28;20039;-63
2023/10/09 03:13:55;;;;;;;49.72;22.00;;;;;;;;;;5053827;28;20124;-63
2023/10/09 03:16:21;;;;;;;52.05;23.13;;;;;;;;;;5053834;28;20084;-63
2023/10/09 03:18:55;;;;;;;50.60;23.35;;;;;;;;;;5054398;28;20084;-63
2023/10/09 03:21:22;;;;;;;52.67;24.08;;;;;;;;;;5053766;28;20041;-63
2023/10/09 03:23:49;;;;;;;55.00;24.02;;;;;;;;;;5019323;28;20041;-63
2023/10/09 03:26:19;;;;;;;59.17;25.75;;;;;;;;;;5053636;28;20041;-63
2023/10/09 03:28:45;;;;;;;54.17;25.23;;;;;;;;;;5053575;28;20067;-63
2023/10/09 03:31:12;;;;;;;55.92;25.77;;;;;;;;;;5053825;28;20506;-63
2023/10/09 03:33:38;;;;;;;54.05;25.52;;;;;;;;;;5053821;28;20505;-63
2023/10/09 03:36:11;;;;;;;51.08;25.17;;;;;;;;;;5052861;28;20077;-63
2023/10/09 03:38:38;;;;;;;57.17;26.42;;;;;;;;;;5053804;28;20094;-63
2023/10/09 03:41:05;;;;;;;58.60;27.88;;;;;;;;;;5053758;28;20040;-63
2023/10/09 03:43:34;;;;;;;61.33;27.67;;;;;;;;;;5053305;28;20044;-63
2023/10/09 03:46:03;;;;;;;59.70;26.98;;;;;;;;;;5053343;28;20075;-63
2023/10/09 03:48:32;;;;;;;57.10;26.67;;;;;;;;;;5053515;28;20044;-63
2023/10/09 03:51:08;;;;;;;53.55;25.50;;;;;;;;;;5035241;28;20052;-63
2023/10/09 03:53:42;;;;;;;60.90;27.98;;;;;;;;;;5053182;28;20083;-63
2023/10/09 03:56:12;;;;;;;62.65;27.70;;;;;;;;;;5053342;28;20136;-63
2023/10/09 03:58:44;;;;;;;58.47;27.45;;;;;;;;;;5053136;28;20044;-63
2023/10/09 04:01:28;;;;;;;66.53;28.10;;;;;;;;;;5053177;28;20076;-63
2023/10/09 04:03:55;;;;;;;57.72;25.77;;;;;;;;;;5052946;28;20103;-63
2023/10/09 04:06:30;;;;;;;64.40;28.85;;;;;;;;;;5052772;28;20068;-63
2023/10/09 04:08:58;;;;;;;65.22;28.58;;;;;;;;;;5053357;28;20048;-63
2023/10/09 04:11:25;;;;;;;62.95;27.77;;;;;;;;;;5053214;28;20045;-63
2023/10/09 04:13:52;;;;;;;57.70;28.67;;;;;;;;;;5052770;28;20068;-63
2023/10/09 04:18:57;;;;;;;58.15;27.92;;;;;;;;;;5033210;28;20128;-63
2023/10/09 04:21:36;;;;;;;67.75;29.23;;;;;;;;;;5032178;28;20083;-63
2023/10/09 04:26:45;;;;;;;64.15;29.10;;;;;;;;;;5047780;28;20072;-63
2023/10/09 04:29:27;;;;;;;70.60;30.08;;;;;;;;;;5052313;28;20128;-63
2023/10/09 04:31:59;;;;;;;55.42;27.67;;;;;;;;;;5052762;28;20040;-63
2023/10/09 04:34:34;;;;;;;61.92;29.77;;;;;;;;;;5052382;28;20041;-63
2023/10/09 04:37:00;;;;;;;59.88;28.95;;;;;;;;;;5052162;28;20083;-63
2023/10/09 04:47:35;;;;;;;64.03;28.85;;;;;;;;;;5052326;28;20056;-63
2023/10/09 04:50:08;;;;;;;66.80;30.20;;;;;;;;;;5051989;28;20045;-63
2023/10/09 04:57:38;;;;;;;;;;;;;;;;;;5052425;28;20041;-63
2023/10/09 05:02:57;;;;;;;66.15;29.52;;;;;;;;;;5052231;28;20045;-63
2023/10/09 05:16:05;;;;;;;62.35;28.75;;;;;;;;;;5051700;28;20045;-63
2023/10/09 05:18:37;;;;;;;54.22;26.73;;;;;;;;;;5051769;28;20079;-63
2023/10/09 05:23:44;;;;;;;61.67;26.95;;;;;;;;;;5051885;28;19965;-63
2023/10/09 05:28:58;;;;;;;51.63;25.38;;;;;;;;;;5051453;28;20132;-63
2023/10/09 05:31:46;;;;;;;53.67;25.02;;;;;;;;;;5050516;28;20049;-63
2023/10/09 05:34:19;;;;;;;45.83;23.13;;;;;;;;;;5051095;28;20045;-63
2023/10/09 05:36:47;;;;;;;49.08;25.10;;;;;;;;;;5051435;28;20482;-63
2023/10/09 05:39:18;;;;;;;49.70;22.48;;;;;;;;;;5051611;28;20048;-63
2023/10/09 05:41:51;;;;;;;46.33;22.77;;;;;;;;;;5050965;28;20044;-63
2023/10/09 05:49:54;;;;;;;43.38;21.70;;;;;;;;;;5051031;28;20134;-63
2023/10/09 05:52:57;;;;;;;45.65;20.52;;;;;;;;;;5050989;28;20060;-63
2023/10/09 06:06:01;;;;;;;39.75;18.23;;;;;;;;;;5050827;28;20048;-63
2023/10/09 06:14:14;;;;;;;38.90;17.08;;;;;;;;;;5051047;28;20088;-63
2023/10/09 06:19:28;;;;;;;34.67;17.67;;;;;;;;;;5032505;28;20461;-63
2023/10/09 06:24:54;;;;;;;35.70;16.63;;;;;;;;;;5050879;28;20048;-63
2023/10/09 06:27:26;;;;;;;30.95;15.85;;;;;;;;;;5030541;28;20041;-63
2023/10/09 06:30:13;;;;;;;32.67;15.82;;;;;;;;;;5031123;28;20045;-63
2023/10/09 06:32:45;;;;;;;33.67;16.40;;;;;;;;;;5030662;28;20081;-63
2023/10/09 06:35:30;;;;;;;31.52;15.68;;;;;;;;;;5036803;28;20055;-63
2023/10/09 06:45:57;;;;;;;30.63;14.13;;;;;;;;;;5045271;28;20052;-62
2023/10/09 06:58:55;;;;;;;27.70;12.35;;;;;;;;;;5053155;28;20053;-64
2023/10/09 07:04:10;;;;;;;29.83;12.00;;;;;;;;;;5050549;28;20076;-63
2023/10/09 07:17:21;;;;;;;23.08;10.52;;;;;;;;;;5020284;28;20053;-63
2023/10/09 07:24:49;;;;;;;24.42;10.85;;;;;;;;;;5040200;28;20053;-64
2023/10/09 07:27:43;;;;;;;25.73;11.02;;;;;;;;;;5016100;28;20134;-64
2023/10/09 07:30:35;;;;;;;27.85;11.32;;;;;;;;;;5050510;28;20041;-63
2023/10/09 07:38:14;;;;;;;24.30;10.40;;;;;;;;;;5050091;28;20040;-63
2023/10/09 07:41:33;;;;;;;24.70;10.60;;;;;;;;;;5035471;28;20037;-64
2023/10/09 07:43:45;;;;;;;20.45;10.60;;;;;;;;;;5049802;28;20044;-63
2023/10/09 07:48:58;;;;;;;25.70;10.07;;;;;;;;;;5037932;28;20045;-63
2023/10/09 07:51:31;;;;;;;20.27;10.70;;;;;;;;;;5049959;28;20087;-64
2023/10/09 07:54:06;;;;;;;23.15;10.27;;;;;;;;;;5051164;28;20057;-63
2023/10/09 07:56:38;;;;;;;25.15;10.45;;;;;;;;;;5050028;28;20076;-62
2023/10/09 07:59:10;;;;;;;25.92;10.73;;;;;;;;;;5051502;28;20682;-63
2023/10/09 08:01:36;;;;;;;;;;;;;;;;;;5051748;28;20069;-61
2023/10/09 08:04:10;;;;;;;24.05;10.88;;;;;;;;;;5051426;28;20437;-63
2023/10/09 08:06:39;;;;;;;23.42;10.45;;;;;;;;;;5050951;28;20491;-64
2023/10/09 08:20:11;;;;;;;26.77;10.73;;;;;;;;;;5050249;28;20037;-62
2023/10/09 08:22:44;;;;;;;22.95;10.43;;;;;;;;;;5038268;28;20041;-61
2023/10/09 08:25:26;;;;;;;22.15;9.82;;;;;;;;;;5037727;28;20124;-62
2023/10/09 08:27:55;;;;;;;25.92;11.02;;;;;;;;;;5040337;28;20115;-62
2023/10/09 08:33:01;;;;;;;25.80;11.25;;;;;;;;;;5051248;28;20049;-62
2023/10/09 08:35:33;;;;;;;29.35;11.38;;;;;;;;;;5050678;28;20123;-63
2023/10/09 08:38:10;;;;;;;21.88;11.07;;;;;;;;;;5050455;28;20049;-63
2023/10/09 08:40:38;;;;;;;25.65;10.77;;;;;;;;;;5049505;28;20036;-63
2023/10/09 08:43:14;;;;;;;24.80;10.60;;;;;;;;;;5044608;28;20044;-64
2023/10/09 08:45:41;;;;;;;22.63;10.18;;;;;;;;;;5045377;28;20086;-62
2023/10/09 08:48:08;;;;;;;22.80;10.40;;;;;;;;;;5033084;28;20053;-63
2023/10/09 08:50:34;;;;;;;27.42;10.02;;;;;;;;;;5050137;28;20108;-63
2023/10/09 08:53:03;;;;;;;29.90;11.23;;;;;;;;;;5050710;28;20110;-62
2023/10/09 08:55:29;;;;;;;24.13;11.05;;;;;;;;;;5043920;28;20088;-63
2023/10/09 08:57:58;;;;;;;33.35;11.10;;;;;;;;;;5037084;28;20064;-62
2023/10/09 09:00:24;;;;;;;28.50;11.45;;;;;;;;;;5048233;28;20095;-63
2023/10/09 09:02:53;;;;;;;27.23;10.43;;;;;;;;;;5046758;28;20040;-62
2023/10/09 09:05:24;;;;;;;21.38;9.80;;;;;;;;;;5042474;28;20090;-63
2023/10/09 09:07:56;;;;;;;21.43;10.43;;;;;;;;;;5045671;28;20076;-63
2023/10/09 09:10:34;;;;;;;26.23;10.95;;;;;;;;;;5046893;28;20646;-61
2023/10/09 09:13:03;;;;;;;29.60;10.35;;;;;;;;;;5049113;28;20047;-62
2023/10/09 09:15:29;;;;;;;27.80;10.30;;;;;;;;;;5045479;28;20472;-62
2023/10/09 09:18:17;;;;;;;25.20;10.75;;;;;;;;;;5044209;28;20029;-62
2023/10/09 09:20:46;;;;;;;24.27;11.20;;;;;;;;;;5046288;28;20045;-62
2023/10/09 09:23:13;;;;;;;31.75;11.65;;;;;;;;;;5042591;28;20041;-62
2023/10/09 09:25:47;;;;;;;31.13;11.38;;;;;;;;;;5040057;28;20041;-63
2023/10/09 09:28:19;;;;;;;27.58;10.88;;;;;;;;;;5047069;28;20072;-63
2023/10/09 09:30:50;;;;;;;24.42;11.13;;;;;;;;;;5049275;28;20041;-62
2023/10/09 09:33:20;;;;;;;27.20;10.60;;;;;;;;;;5047591;28;20041;-63
2023/10/09 09:35:57;;;;;;;20.65;11.05;;;;;;;;;;5049573;28;20049;-63
2023/10/09 09:38:25;;;;;;;25.63;11.38;;;;;;;;;;5043771;28;20051;-63
2023/10/09 09:40:53;;;;;;;22.27;10.57;;;;;;;;;;5046638;28;20043;-63
2023/10/09 09:43:25;;;;;;;22.77;10.18;;;;;;;;;;5047493;28;20091;-64
2023/10/09 09:45:56;;;;;;;22.65;10.35;;;;;;;;;;5041714;28;20088;-64
2023/10/09 09:48:23;;;;;;;26.52;10.88;;;;;;;;;;5043789;28;20103;-64
2023/10/09 09:50:54;;;;;;;31.50;10.88;;;;;;;;;;5044167;28;20116;-62
2023/10/09 09:53:23;;;;;;;26.67;11.52;;;;;;;;;;5040777;28;20112;-62
2023/10/09 09:55:55;;;;;;;29.45;10.50;;;;;;;;;;5046047;28;20049;-62
2023/10/09 09:58:23;;;;;;;24.88;10.60;;;;;;;;;;5048690;28;20423;-62
2023/10/09 10:00:54;;;;;;;31.55;12.35;;;;;;;;;;5048722;28;20045;-60
2023/10/09 10:03:22;;;;;;;34.10;11.80;;;;;;;;;;5048392;28;20052;-62
2023/10/09 10:05:50;;;;;;;28.25;10.90;;;;;;;;;;5031699;28;20041;-62
2023/10/09 10:08:20;;;;;;;31.80;11.38;;;;;;;;;;5048623;28;20099;-62
2023/10/09 10:10:52;;;;;;;31.00;11.32;;;;;;;;;;5048893;28;20056;-62
2023/10/09 10:13:27;;;;;;;33.42;11.63;;;;;;;;;;5038546;28;20048;-62
2023/10/09 10:16:08;;;;;;;23.52;10.25;;;;;;;;;;5048936;28;20051;-62
2023/10/09 10:18:52;;;;;;;25.75;10.63;;;;;;;;;;5048585;28;20067;-61
2023/10/09 10:21:29;;;;;;;24.60;10.20;;;;;;;;;;5050029;28;20123;-62
2023/10/09 10:24:12;;;;;;;23.95;10.43;;;;;;;;;;5041551;28;20087;-61
2023/10/09 10:26:38;;;;;;;29.38;9.85;;;;;;;;;;5045857;28;20056;-61
2023/10/09 10:29:24;;;;;;;27.05;10.35;;;;;;;;;;5047618;28;20037;-61
2023/10/09 10:31:55;;;;;;;25.48;10.50;;;;;;;;;;5047545;28;20080;-63
2023/10/09 10:34:25;;;;;;;22.42;9.52;;;;;;;;;;5044585;28;20049;-63
2023/10/09 10:37:01;;;;;;;26.30;10.43;;;;;;;;;;5047520;28;20402;-63
2023/10/09 10:39:42;;;;;;;25.10;8.95;;;;;;;;;;5044520;28;20033;-63
2023/10/09 10:44:53;;;;;;;23.83;9.80;;;;;;;;;;5048260;28;20057;-63
2023/10/09 10:47:32;;;;;;;19.92;9.38;;;;;;;;;;5048121;28;20399;-63
2023/10/09 10:49:58;;;;;;;19.48;9.45;;;;;;;;;;5042633;28;20388;-63
2023/10/09 10:52:58;;;;;;;23.02;10.10;;;;;;;;;;5045207;28;20133;-63
2023/10/09 10:55:48;;;;;;;26.33;9.18;;;;;;;;;;5041862;28;20045;-63
2023/10/09 10:58:13;;;;;;;25.67;10.00;;;;;;;;;;5047267;28;20052;-63
2023/10/09 11:03:35;;;;;;;25.27;9.82;;;;;;;;;;5037735;28;20037;-64
2023/10/09 11:06:13;;;;;;;25.02;9.18;;;;;;;;;;5054985;28;20053;-62
2023/10/09 11:08:53;;;;;;;20.23;8.45;;;;;;;;;;5044495;28;20044;-60
2023/10/09 11:11:20;;;;;;;23.33;8.90;;;;;;;;;;5043054;28;20050;-61
2023/10/09 11:13:54;;;;;;;18.00;9.07;;;;;;;;;;5044107;28;20037;-60
2023/10/09 11:19:13;;;;;;;23.20;9.10;;;;;;;;;;5045749;28;20037;-64
2023/10/09 11:21:43;;;;;;;22.15;9.35;;;;;;;;;;5030220;28;20047;-62
2023/10/09 11:24:24;;;;;;;20.92;9.45;;;;;;;;;;5048405;28;20045;-64
2023/10/09 11:26:55;;;;;;;18.50;8.93;;;;;;;;;;5044747;28;20056;-61
2023/10/09 11:32:13;;;;;;;22.45;9.27;;;;;;;;;;5051556;28;20631;-62
2023/10/09 11:34:45;;;;;;;20.52;8.15;;;;;;;;;;5035945;28;20641;-62
2023/10/09 11:39:56;;;;;;;21.10;8.35;;;;;;;;;;5046103;28;20447;-62
2023/10/09 11:42:38;;;;;;;22.10;8.55;;;;;;;;;;5039901;28;20543;-63
2023/10/09 11:45:22;;;;;;;19.48;7.15;;;;;;;;;;5046155;28;20450;-62
2023/10/09 11:47:57;;;;;;;16.70;7.38;;;;;;;;;;5048759;28;20056;-64
2023/10/09 11:51:17;;;;;;;18.48;7.68;;;;;;;;;;5049577;28;20040;-63
2023/10/09 11:53:45;;;;;;;17.45;6.70;;;;;;;;;;5043347;28;20119;-63
2023/10/09 11:56:14;;;;;;;17.40;7.43;;;;;;;;;;5052037;28;20045;-63
2023/10/09 11:58:40;;;;;;;21.33;6.80;;;;;;;;;;5036024;28;20053;-63
2023/10/09 12:01:23;;;;;;;15.05;6.25;;;;;;;;;;5051912;28;20132;-62
2023/10/09 12:03:50;;;;;;;16.58;6.45;;;;;;;;;;5052349;28;20128;-62
2023/10/09 12:06:18;;;;;;;14.07;5.63;;;;;;;;;;5052061;28;20099;-62
2023/10/09 12:08:48;;;;;;;16.05;6.32;;;;;;;;;;5051952;28;20044;-60
2023/10/09 12:11:22;;;;;;;14.50;5.95;;;;;;;;;;5052029;28;20045;-60
2023/10/09 12:13:48;;;;;;;17.23;6.43;;;;;;;;;;5051974;28;20049;-61
2023/10/09 12:16:15;;;;;;;13.55;6.18;;;;;;;;;;5051491;28;20510;-61
2023/10/09 12:18:42;;;;;;;13.52;5.97;;;;;;;;;;5051880;28;20040;-61
2023/10/09 12:21:15;;;;;;;15.02;5.65;;;;;;;;;;5050999;28;20116;-62
2023/10/09 12:23:43;;;;;;;13.70;5.10;;;;;;;;;;5048546;28;20032;-62
2023/10/09 12:26:14;;;;;;;14.40;5.60;;;;;;;;;;5051228;28;20099;-61
2023/10/09 12:28:40;;;;;;;16.98;5.88;;;;;;;;;;5050684;28;20055;-61
2023/10/09 12:31:06;;;;;;;14.48;5.43;;;;;;;;;;5051488;28;20526;-63
2023/10/09 12:33:32;;;;;;;16.80;5.53;;;;;;;;;;5034303;28;20037;-63
2023/10/09 12:36:01;;;;;;;12.50;5.30;;;;;;;;;;5051017;28;20079;-63
2023/10/09 12:38:31;;;;;;;15.27;5.13;;;;;;;;;;5033850;28;20543;-63
2023/10/09 12:41:19;;;;;;;11.27;4.63;;;;;;;;;;5050803;28;20644;-62
2023/10/09 12:43:45;;;;;;;11.80;4.85;;;;;;;;;;5050833;28;20482;-63
2023/10/09 12:46:16;;;;;;;12.38;4.55;;;;;;;;;;5051591;28;20041;-62
2023/10/09 12:48:46;;;;;;;11.93;4.82;;;;;;;;;;5027451;28;20043;-63
2023/10/09 12:51:16;;;;;;;11.80;4.60;;;;;;;;;;5050898;28;20422;-63
2023/10/09 12:53:42;;;;;;;15.20;4.50;;;;;;;;;;5050478;28;20053;-62
2023/10/09 12:56:09;;;;;;;14.75;4.65;;;;;;;;;;5050743;28;20053;-62
2023/10/09 12:58:37;;;;;;;16.05;4.78;;;;;;;;;;5050847;28;20041;-63
2023/10/09 13:01:09;;;;;;;13.65;3.90;;;;;;;;;;5050620;28;20055;-63
2023/10/09 13:03:38;;;;;;;;;;;;;;;;;;5051099;28;20049;-63
2023/10/09 13:06:10;;;;;;;13.35;4.28;;;;;;;;;;5050847;28;19939;-63
2023/10/09 13:08:36;;;;;;;13.35;4.20;;;;;;;;;;5050650;28;20079;-61
2023/10/09 13:11:16;;;;;;;12.05;3.88;;;;;;;;;;5050930;28;20071;-63
2023/10/09 13:13:43;;;;;;;10.40;3.90;;;;;;;;;;5043360;28;20151;-63
2023/10/09 13:16:13;;;;;;;13.25;3.97;;;;;;;;;;5048648;28;20390;-63
2023/10/09 13:18:49;;;;;;;13.45;3.65;;;;;;;;;;5045608;28;20041;-62
2023/10/09 13:21:19;;;;;;;8.15;3.13;;;;;;;;;;5047340;28;20113;-63
2023/10/09 13:23:46;;;;;;;14.23;3.50;;;;;;;;;;5043578;28;20044;-62
2023/10/09 13:26:21;;;;;;;9.10;3.70;;;;;;;;;;5050715;28;20052;-62
2023/10/09 13:28:51;;;;;;;8.88;2.90;;;;;;;;;;5049746;28;20044;-62
2023/10/09 13:31:17;;;;;;;12.38;3.47;;;;;;;;;;5050565;28;20037;-62
2023/10/09 13:33:44;;;;;;;9.15;2.90;;;;;;;;;;5045089;28;20533;-62
2023/10/09 13:36:26;;;;;;;8.82;3.25;;;;;;;;;;5045889;28;20048;-62
2023/10/09 13:38:53;;;;;;;;;;;;;;;;;;5036723;28;20051;-63
2023/10/09 13:41:19;;;;;;;16.58;3.90;;;;;;;;;;5049983;28;19921;-62
2023/10/09 13:43:45;;;;;;;11.65;3.38;;;;;;;;;;5049999;28;20036;-62
2023/10/09 13:46:12;;;;;;;15.70;3.83;;;;;;;;;;5050687;28;20123;-62
2023/10/09 13:48:41;;;;;;;11.45;3.40;;;;;;;;;;5042005;28;20044;-62
2023/10/09 13:51:23;;;;;;;13.32;3.70;;;;;;;;;;5050239;28;20044;-61
2023/10/09 13:53:50;;;;;;;10.73;3.53;;;;;;;;;;5049601;28;20068;-61
2023/10/09 13:56:20;;;;;;;8.73;3.53;;;;;;;;;;5049981;28;20033;-61
2023/10/09 13:58:50;;;;;;;13.68;3.42;;;;;;;;;;5050063;28;20400;-61
2023/10/09 14:01:32;;;;;;;13.63;3.45;;;;;;;;;;5047015;28;20069;-64
2023/10/09 14:03:59;;;;;;;12.50;3.50;;;;;;;;;;5044577;28;20036;-62
2023/10/09 14:06:30;;;;;;;12.30;3.60;;;;;;;;;;5044872;28;20076;-62
2023/10/09 14:09:04;;;;;;;12.93;3.55;;;;;;;;;;5043890;28;20041;-62
2023/10/09 14:11:30;;;;;;;8.52;3.50;;;;;;;;;;5046049;28;20107;-64
2023/10/09 14:13:56;;;;;;;13.43;3.80;;;;;;;;;;5034241;28;20438;-62
2023/10/09 14:16:27;;;;;;;13.52;3.38;;;;;;;;;;5041578;28;20083;-63
2023/10/09 14:19:00;;;;;;;10.48;3.67;;;;;;;;;;5050397;28;20065;-64
2023/10/09 14:21:30;;;;;;;12.48;3.35;;;;;;;;;;5049836;28;20036;-64
2023/10/09 14:23:57;;;;;;;10.27;3.38;;;;;;;;;;5050218;28;20045;-64
2023/10/09 14:26:25;;;;;;;9.98;3.20;;;;;;;;;;5050751;28;20041;-63
2023/10/09 14:28:52;;;;;;;7.97;3.05;;;;;;;;;;5049824;28;20049;-63
2023/10/09 14:31:26;;;;;;;5.10;2.95;;;;;;;;;;5050732;28;20072;-63
2023/10/09 14:33:53;;;;;;;10.80;2.88;;;;;;;;;;5050629;28;20423;-63
2023/10/09 14:36:21;;;;;;;9.98;3.15;;;;;;;;;;5049982;28;20091;-63
2023/10/09 14:38:52;;;;;;;12.52;3.25;;;;;;;;;;5032418;28;20040;-62
2023/10/09 14:41:21;;;;;;;9.57;2.80;;;;;;;;;;5050257;28;20040;-64
2023/10/09 14:43:48;;;;;;;11.38;3.22;;;;;;;;;;5049878;28;20059;-65
2023/10/09 14:46:14;;;;;;;8.18;2.67;;;;;;;;;;5049965;28;20049;-64
2023/10/09 14:48:43;;;;;;;8.32;3.03;;;;;;;;;;5050075;28;20043;-64
2023/10/09 14:51:13;;;;;;;7.25;2.38;;;;;;;;;;5050101;28;20095;-63
2023/10/09 14:53:40;;;;;;;6.97;2.78;;;;;;;;;;5050046;28;20504;-64
2023/10/09 14:56:09;;;;;;;7.20;2.88;;;;;;;;;;5050277;28;20048;-63
2023/10/09 14:58:36;;;;;;;8.30;2.30;;;;;;;;;;5050012;28;20094;-65
2023/10/09 15:01:15;;;;;;;8.75;2.83;;;;;;;;;;5050435;28;20037;-65
2023/10/09 15:03:42;;;;;;;9.93;3.63;;;;;;;;;;5051114;28;20403;-65
2023/10/09 15:06:11;;;;;;;11.18;3.00;;;;;;;;;;5054209;28;20049;-65
2023/10/09 15:08:37;;;;;;;9.77;3.10;;;;;;;;;;5054283;28;20037;-65
2023/10/09 15:11:03;;;;;;;14.65;3.75;;;;;;;;;;5054438;28;20033;-65
2023/10/09 15:13:30;;;;;;;14.45;4.20;;;;;;;;;;5053719;28;20060;-65
2023/10/09 15:15:56;;;;;;;13.55;3.20;;;;;;;;;;5054239;28;20047;-65
2023/10/09 15:18:23;;;;;;;10.25;2.63;;;;;;;;;;5054125;28;20041;-65
2023/10/09 15:20:51;;;;;;;14.07;2.95;;;;;;;;;;5053854;28;20041;-65
2023/10/09 15:23:19;;;;;;;9.48;3.17;;;;;;;;;;5054085;28;20063;-65
2023/10/09 15:25:49;;;;;;;9.27;3.10;;;;;;;;;;5054048;28;20044;-65
2023/10/09 15:28:17;;;;;;;8.07;2.78;;;;;;;;;;5053801;28;20045;-65
2023/10/09 15:30:43;;;;;;;11.32;2.92;;;;;;;;;;5054054;28;20433;-65
2023/10/09 15:33:10;;;;;;;9.38;3.08;;;;;;;;;;5054145;28;20434;-65
2023/10/09 15:35:37;;;;;;;7.13;2.47;;;;;;;;;;5053286;28;20146;-65
2023/10/09 15:38:04;;;;;;;10.73;2.53;;;;;;;;;;5053818;28;20036;-65
2023/10/09 15:40:34;;;;;;;9.07;2.90;;;;;;;;;;5053507;28;20041;-65
2023/10/09 15:43:00;;;;;;;9.90;2.45;;;;;;;;;;5053477;28;20049;-65
2023/10/09 15:45:28;;;;;;;10.52;2.60;;;;;;;;;;5053623;28;20041;-65
2023/10/09 15:47:55;;;;;;;8.25;2.42;;;;;;;;;;5053693;28;20067;-65
2023/10/09 15:50:25;;;;;;;9.18;2.45;;;;;;;;;;5053101;28;20120;-65
2023/10/09 15:52:54;;;;;;;5.85;2.40;;;;;;;;;;5053320;28;20060;-65
2023/10/09 15:55:20;;;;;;;6.70;2.50;;;;;;;;;;5053253;28;20095;-65
2023/10/09 15:57:52;;;;;;;9.18;2.97;;;;;;;;;;5053258;28;20512;-65
2023/10/09 16:00:18;;;;;;;4.70;2.28;;;;;;;;;;5053649;28;20049;-65
2023/10/09 16:02:45;;;;;;;7.15;2.00;;;;;;;;;;5053678;28;20033;-65
2023/10/09 16:05:11;;;;;;;5.70;2.03;;;;;;;;;;5052993;28;20383;-65
2023/10/09 16:07:40;;;;;;;8.32;2.22;;;;;;;;;;5053425;28;20629;-65
2023/10/09 16:10:10;;;;;;;6.60;2.20;;;;;;;;;;5053018;28;20052;-65
2023/10/09 16:12:37;;;;;;;7.50;2.10;;;;;;;;;;5052940;28;20056;-65
2023/10/09 16:15:05;;;;;;;7.03;1.90;;;;;;;;;;5052231;28;20064;-65
2023/10/09 16:17:32;;;;;;;5.75;1.67;;;;;;;;;;5052727;28;20041;-65
2023/10/09 16:19:59;;;;;;;3.70;1.98;;;;;;;;;;5052875;28;20044;-65
2023/10/09 16:22:25;;;;;;;7.07;2.28;;;;;;;;;;5052842;28;20090;-65
2023/10/09 16:24:55;;;;;;;4.78;1.75;;;;;;;;;;5052971;28;20044;-65
2023/10/09 16:27:23;;;;;;;6.65;1.80;;;;;;;;;;5052375;28;20053;-66
2023/10/09 16:29:52;;;;;;;5.18;1.70;;;;;;;;;;5053215;28;20048;-66
2023/10/09 16:32:23;;;;;;;5.50;2.05;;;;;;;;;;5052664;28;20041;-66
2023/10/09 16:34:50;;;;;;;5.65;1.70;;;;;;;;;;5052477;28;20045;-66
2023/10/09 16:37:17;;;;;;;6.60;2.10;;;;;;;;;;5052769;28;20087;-66
2023/10/09 16:39:44;;;;;;;3.20;1.63;;;;;;;;;;5052620;28;20045;-66
2023/10/09 16:42:10;;;;;;;6.13;1.88;;;;;;;;;;5052338;28;20617;-66
2023/10/09 16:44:37;;;;;;;2.50;1.85;;;;;;;;;;5052652;28;20044;-66
2023/10/09 16:47:03;;;;;;;7.50;2.00;;;;;;;;;;5052665;28;20045;-66
2023/10/09 16:49:32;;;;;;;6.70;2.03;;;;;;;;;;5034397;28;20098;-66
2023/10/09 16:51:59;;;;;;;8.27;2.28;;;;;;;;;;5052312;28;20088;-66
2023/10/09 16:54:26;;;;;;;8.98;2.63;;;;;;;;;;5052469;28;20048;-66
2023/10/09 16:56:55;;;;;;;6.30;2.15;;;;;;;;;;5052055;28;20041;-66
2023/10/09 16:59:22;;;;;;;5.18;2.20;;;;;;;;;;5052421;28;20063;-66
2023/10/09 17:01:48;;;;;;;7.97;2.55;;;;;;;;;;5034318;28;20068;-66
2023/10/09 17:04:17;;;;;;;5.70;2.33;;;;;;;;;;5051653;28;20404;-66
2023/10/09 17:06:49;;;;;;;10.93;2.78;;;;;;;;;;5052168;28;20376;-66
2023/10/09 17:09:19;;;;;;;7.93;2.45;;;;;;;;;;5052238;28;20048;-66
2023/10/09 17:11:51;;;;;;;7.07;2.72;;;;;;;;;;5051564;28;20080;-66
2023/10/09 17:14:25;;;;;;;11.00;2.47;;;;;;;;;;5052066;28;20053;-66
2023/10/09 17:16:52;;;;;;;6.18;2.60;;;;;;;;;;5051860;28;20041;-66
2023/10/09 17:19:18;;;;;;;9.13;2.60;;;;;;;;;;5051740;28;20087;-66
2023/10/09 17:21:46;;;;;;;14.07;2.70;;;;;;;;;;5052123;28;20155;-65
2023/10/09 17:24:12;;;;;;;5.68;2.38;;;;;;;;;;5051989;28;20041;-65
2023/10/09 17:26:39;;;;;;;11.70;3.03;;;;;;;;;;5051400;28;20099;-65